This is the latest recevied weather packets stored in our database for station/object NY3Q. If no packets are shown the sender has not sent any weather packets the latest 10 day(s).
| Time | Temp. | Humidity | Pressure | Rain* | Wind** | Luminosity | Snow |
|---|---|---|---|---|---|---|---|
| 1777688693 | 21.67° C | 77% | 1012.1 hPa | 0 mm | - | 0 W/m² | - |
| 1777674149 | 25.56° C | 74% | 1009.8 hPa | 0 mm | - | 56 W/m² | - |
| 1777673845 | 25.56° C | 72% | 1010 hPa | 0 mm | - | 45 W/m² | - |
| 1777673543 | 25.56° C | 71% | 1010.1 hPa | 0 mm | - | 55 W/m² | - |
| 1777673240 | 25.56° C | 70% | 1010.1 hPa | 0 mm | - | 53 W/m² | - |
| 1777672330 | 26.11° C | 69% | 1009.7 hPa | 0 mm | - | 35 W/m² | - |
| 1777671721 | 26.67° C | 67% | 1009.6 hPa | 0 mm | - | 46 W/m² | - |
| 1777671417 | 26.67° C | 66% | 1009.7 hPa | 0 mm | - | 42 W/m² | - |
| 1777670810 | 30° C | 58% | 1009.5 hPa | 0 mm | - | 79 W/m² | - |
| 1777670507 | 29.44° C | 52% | 1009.4 hPa | 0 mm | - | 153 W/m² | - |
| 1777670203 | 30° C | 52% | 1009.3 hPa | 0 mm | - | 150 W/m² | - |
| 1777669901 | 30° C | 51% | 1009.3 hPa | 0 mm | - | 161 W/m² | - |
| 1777669597 | 30° C | 51% | 1009.3 hPa | 0 mm | - | 124 W/m² | - |
| 1777669294 | 30.56° C | 50% | 1009.5 hPa | 0 mm | - | 291 W/m² | - |
| 1777668991 | 31.11° C | 48% | 1009.3 hPa | 0 mm | - | 125 W/m² | - |
| 1777668688 | 31.67° C | 50% | 1009.3 hPa | 0 mm | - | 384 W/m² | - |
| 1777668081 | 31.11° C | 47% | 1009.2 hPa | 0 mm | - | 376 W/m² | - |
| 1777667778 | 31.11° C | 49% | 1009.3 hPa | 0 mm | - | 286 W/m² | - |
| 1777667172 | 30.56° C | 49% | 1009.5 hPa | 0 mm | - | 200 W/m² | - |
| 1777666869 | 31.11° C | 49% | 1009.6 hPa | 0 mm | - | 191 W/m² | - |
| 1777666566 | 31.11° C | 48% | 1009.7 hPa | 0 mm | - | 441 W/m² | - |
| 1777666262 | 31.11° C | 50% | 1009.7 hPa | 0 mm | - | 476 W/m² | - |
| 1777665959 | 31.11° C | 49% | 1009.8 hPa | 0 mm | - | 513 W/m² | - |
| 1777665657 | 30.56° C | 52% | 1010.2 hPa | 0 mm | - | 587 W/m² | - |
| 1777665354 | 30.56° C | 52% | 1010.2 hPa | 0 mm | - | 267 W/m² | - |
* Rain latest hour (hover to see other rain measurements)
** Current wind speed in m/s (hover to see current wind gust speed)